sensor_id;sensor_type;location;lat;lon;timestamp;pressure;altitude;pressure_sealevel;temperature;humidity
54453;BME280;40363;52.270;10.546;2022-10-04T00:00:50;77155.28;;;-147.06;80.14
54453;BME280;40363;52.270;10.546;2022-10-04T00:03:27;77155.28;;;-147.06;79.89
54453;BME280;40363;52.270;10.546;2022-10-04T00:05:56;77159.41;;;-147.06;80.31
54453;BME280;40363;52.270;10.546;2022-10-04T00:08:28;77165.56;;;-147.06;80.68
54453;BME280;40363;52.270;10.546;2022-10-04T00:11:07;77163.50;;;-147.06;80.63
54453;BME280;40363;52.270;10.546;2022-10-04T00:13:39;77159.41;;;-147.06;80.69
54453;BME280;40363;52.270;10.546;2022-10-04T00:16:13;77167.63;;;-147.06;80.40
54453;BME280;40363;52.270;10.546;2022-10-04T00:18:45;77161.47;;;-147.06;80.25
54453;BME280;40363;52.270;10.546;2022-10-04T00:21:11;77171.72;;;-147.06;80.55
54453;BME280;40363;52.270;10.546;2022-10-04T00:23:44;77173.78;;;-147.06;80.63
54453;BME280;40363;52.270;10.546;2022-10-04T00:29:31;77173.78;;;-147.06;80.85
54453;BME280;40363;52.270;10.546;2022-10-04T00:32:25;77190.22;;;-147.06;81.01
54453;BME280;40363;52.270;10.546;2022-10-04T00:34:53;77186.13;;;-147.06;80.94
54453;BME280;40363;52.270;10.546;2022-10-04T00:37:20;77188.19;;;-147.06;81.14
54453;BME280;40363;52.270;10.546;2022-10-04T00:39:57;77184.06;;;-147.06;80.97
54453;BME280;40363;52.270;10.546;2022-10-04T00:42:38;77175.84;;;-147.06;81.04
54453;BME280;40363;52.270;10.546;2022-10-04T00:48:08;77171.72;;;-147.06;81.15
54453;BME280;40363;52.270;10.546;2022-10-04T00:50:40;77165.56;;;-147.06;81.17
54453;BME280;40363;52.270;10.546;2022-10-04T00:53:16;77165.56;;;-147.06;81.05
54453;BME280;40363;52.270;10.546;2022-10-04T00:55:47;77163.50;;;-147.06;81.33
54453;BME280;40363;52.270;10.546;2022-10-04T00:58:17;77163.50;;;-147.06;80.97
54453;BME280;40363;52.270;10.546;2022-10-04T01:00:48;77163.50;;;-147.06;81.09
54453;BME280;40363;52.270;10.546;2022-10-04T01:03:18;77163.50;;;-147.06;81.22
54453;BME280;40363;52.270;10.546;2022-10-04T01:05:49;77163.50;;;-147.06;81.01
54453;BME280;40363;52.270;10.546;2022-10-04T01:08:23;77159.41;;;-147.06;80.74
54453;BME280;40363;52.270;10.546;2022-10-04T01:10:53;77165.56;;;-147.06;80.99
54453;BME280;40363;52.270;10.546;2022-10-04T01:13:25;77159.41;;;-147.06;81.07
54453;BME280;40363;52.270;10.546;2022-10-04T01:15:59;77157.34;;;-147.06;81.11
54453;BME280;40363;52.270;10.546;2022-10-04T01:18:29;77155.28;;;-147.06;81.25
54453;BME280;40363;52.270;10.546;2022-10-04T01:20:59;77147.06;;;-147.06;80.89
54453;BME280;40363;52.270;10.546;2022-10-04T01:23:43;77149.13;;;-147.06;81.00
54453;BME280;40363;52.270;10.546;2022-10-04T01:26:39;77138.84;;;-147.06;80.83
54453;BME280;40363;52.270;10.546;2022-10-04T01:29:10;77149.13;;;-147.06;81.07
54453;BME280;40363;52.270;10.546;2022-10-04T01:31:39;77138.84;;;-147.06;81.01
54453;BME280;40363;52.270;10.546;2022-10-04T01:34:07;77134.72;;;-147.06;81.10
54453;BME280;40363;52.270;10.546;2022-10-04T01:36:34;77132.69;;;-147.06;80.94
54453;BME280;40363;52.270;10.546;2022-10-04T01:39:04;77128.56;;;-147.06;80.87
54453;BME280;40363;52.270;10.546;2022-10-04T01:41:38;77134.72;;;-147.06;80.83
54453;BME280;40363;52.270;10.546;2022-10-04T01:44:10;77145.00;;;-147.06;81.29
54453;BME280;40363;52.270;10.546;2022-10-04T01:46:40;77140.91;;;-147.06;81.25
54453;BME280;40363;52.270;10.546;2022-10-04T01:49:09;77136.78;;;-147.06;81.32
54453;BME280;40363;52.270;10.546;2022-10-04T01:51:42;77145.00;;;-147.06;81.33
54453;BME280;40363;52.270;10.546;2022-10-04T01:54:14;77149.13;;;-147.06;81.47
54453;BME280;40363;52.270;10.546;2022-10-04T01:56:46;77142.97;;;-147.06;81.26
54453;BME280;40363;52.270;10.546;2022-10-04T01:59:18;77130.63;;;-147.06;81.07
54453;BME280;40363;52.270;10.546;2022-10-04T02:01:50;77130.63;;;-147.06;81.28
54453;BME280;40363;52.270;10.546;2022-10-04T02:04:22;77128.56;;;-147.06;81.35
54453;BME280;40363;52.270;10.546;2022-10-04T02:06:54;77134.72;;;-147.06;81.55
54453;BME280;40363;52.270;10.546;2022-10-04T02:09:31;77147.06;;;-147.06;81.70
54453;BME280;40363;52.270;10.546;2022-10-04T02:12:00;77145.00;;;-147.06;81.71
54453;BME280;40363;52.270;10.546;2022-10-04T02:14:30;77147.06;;;-147.06;81.64
54453;BME280;40363;52.270;10.546;2022-10-04T02:16:59;77147.06;;;-147.06;81.81
54453;BME280;40363;52.270;10.546;2022-10-04T02:19:32;77155.28;;;-147.06;82.01
54453;BME280;40363;52.270;10.546;2022-10-04T02:22:01;77142.97;;;-147.06;81.99
54453;BME280;40363;52.270;10.546;2022-10-04T02:24:37;77145.00;;;-147.06;81.82
54453;BME280;40363;52.270;10.546;2022-10-04T02:27:05;77147.06;;;-147.06;81.84
54453;BME280;40363;52.270;10.546;2022-10-04T02:29:32;77142.97;;;-147.06;81.91
54453;BME280;40363;52.270;10.546;2022-10-04T02:32:00;77140.91;;;-147.06;82.06
54453;BME280;40363;52.270;10.546;2022-10-04T02:34:46;77134.72;;;-147.06;81.83
54453;BME280;40363;52.270;10.546;2022-10-04T02:37:13;77136.78;;;-147.06;81.84
54453;BME280;40363;52.270;10.546;2022-10-04T02:39:43;77138.84;;;-147.06;81.91
54453;BME280;40363;52.270;10.546;2022-10-04T02:42:15;77130.63;;;-147.06;81.93
54453;BME280;40363;52.270;10.546;2022-10-04T02:44:45;77130.63;;;-147.06;81.98
54453;BME280;40363;52.270;10.546;2022-10-04T02:47:19;77142.97;;;-147.06;82.65
54453;BME280;40363;52.270;10.546;2022-10-04T02:49:49;77153.22;;;-147.06;83.10
54453;BME280;40363;52.270;10.546;2022-10-04T02:52:21;77145.00;;;-147.06;83.84
54453;BME280;40363;52.270;10.546;2022-10-04T02:54:56;77147.06;;;-147.06;83.81
54453;BME280;40363;52.270;10.546;2022-10-04T02:57:40;77149.13;;;-147.06;83.58
54453;BME280;40363;52.270;10.546;2022-10-04T03:00:18;77140.91;;;-147.06;83.56
54453;BME280;40363;52.270;10.546;2022-10-04T03:03:08;77145.00;;;-147.06;83.53
54453;BME280;40363;52.270;10.546;2022-10-04T03:05:37;77134.72;;;-147.06;83.28
54453;BME280;40363;52.270;10.546;2022-10-04T03:08:05;77136.78;;;-147.06;83.28
54453;BME280;40363;52.270;10.546;2022-10-04T03:10:34;77132.69;;;-147.06;83.08
54453;BME280;40363;52.270;10.546;2022-10-04T03:13:00;77140.91;;;-147.06;83.32
54453;BME280;40363;52.270;10.546;2022-10-04T03:15:27;77134.72;;;-147.06;82.79
54453;BME280;40363;52.270;10.546;2022-10-04T03:17:54;77126.50;;;-147.06;82.56
54453;BME280;40363;52.270;10.546;2022-10-04T03:20:21;77122.41;;;-147.06;82.53
54453;BME280;40363;52.270;10.546;2022-10-04T03:22:50;77138.84;;;-147.06;82.96
54453;BME280;40363;52.270;10.546;2022-10-04T03:25:20;77142.97;;;-147.06;83.23
54453;BME280;40363;52.270;10.546;2022-10-04T03:27:50;77136.78;;;-147.06;83.36
54453;BME280;40363;52.270;10.546;2022-10-04T03:30:18;77138.84;;;-147.06;83.25
54453;BME280;40363;52.270;10.546;2022-10-04T03:32:45;77128.56;;;-147.06;83.14
54453;BME280;40363;52.270;10.546;2022-10-04T03:35:21;77118.28;;;-147.06;82.91
54453;BME280;40363;52.270;10.546;2022-10-04T03:37:48;77114.19;;;-147.06;82.66
54453;BME280;40363;52.270;10.546;2022-10-04T03:40:15;77112.13;;;-147.06;82.67
54453;BME280;40363;52.270;10.546;2022-10-04T03:42:54;77110.06;;;-147.06;82.47
54453;BME280;40363;52.270;10.546;2022-10-04T03:45:22;77110.06;;;-147.06;82.64
54453;BME280;40363;52.270;10.546;2022-10-04T03:47:50;77112.13;;;-147.06;82.63
54453;BME280;40363;52.270;10.546;2022-10-04T03:50:18;77097.72;;;-147.06;82.44
54453;BME280;40363;52.270;10.546;2022-10-04T03:52:51;77097.72;;;-147.06;82.36
54453;BME280;40363;52.270;10.546;2022-10-04T03:55:20;77097.72;;;-147.06;82.26
54453;BME280;40363;52.270;10.546;2022-10-04T03:57:49;77097.72;;;-147.06;82.40
54453;BME280;40363;52.270;10.546;2022-10-04T04:00:17;77097.72;;;-147.06;82.44
54453;BME280;40363;52.270;10.546;2022-10-04T04:02:49;77108.00;;;-147.06;82.73
54453;BME280;40363;52.270;10.546;2022-10-04T04:05:20;77099.78;;;-147.06;82.83
54453;BME280;40363;52.270;10.546;2022-10-04T04:08:03;77091.56;;;-147.06;82.88
54453;BME280;40363;52.270;10.546;2022-10-04T04:10:34;77097.72;;;-147.06;82.69
54453;BME280;40363;52.270;10.546;2022-10-04T04:13:08;77097.72;;;-147.06;82.59
54453;BME280;40363;52.270;10.546;2022-10-04T04:15:38;77093.63;;;-147.06;82.77
54453;BME280;40363;52.270;10.546;2022-10-04T04:18:13;77089.50;;;-147.06;82.80
54453;BME280;40363;52.270;10.546;2022-10-04T04:20:44;77091.56;;;-147.06;82.85
54453;BME280;40363;52.270;10.546;2022-10-04T04:23:21;77093.63;;;-147.06;83.15
54453;BME280;40363;52.270;10.546;2022-10-04T04:25:50;77101.84;;;-147.06;84.04
54453;BME280;40363;52.270;10.546;2022-10-04T04:28:24;77118.28;;;-147.06;85.17
54453;BME280;40363;52.270;10.546;2022-10-04T04:30:56;77142.97;;;-147.06;86.21
54453;BME280;40363;52.270;10.546;2022-10-04T04:33:28;77126.50;;;-147.06;85.89
54453;BME280;40363;52.270;10.546;2022-10-04T04:36:05;77118.28;;;-147.06;85.84
54453;BME280;40363;52.270;10.546;2022-10-04T04:38:32;77140.91;;;-147.06;86.56
54453;BME280;40363;52.270;10.546;2022-10-04T04:41:06;77147.06;;;-147.06;87.05
54453;BME280;40363;52.270;10.546;2022-10-04T04:43:35;77138.84;;;-147.06;86.93
54453;BME280;40363;52.270;10.546;2022-10-04T04:46:07;77151.19;;;-147.06;87.44
54453;BME280;40363;52.270;10.546;2022-10-04T04:48:36;77142.97;;;-147.06;87.61
54453;BME280;40363;52.270;10.546;2022-10-04T04:51:03;77147.06;;;-147.06;87.67
54453;BME280;40363;52.270;10.546;2022-10-04T04:53:30;77149.13;;;-147.06;87.18
54453;BME280;40363;52.270;10.546;2022-10-04T04:55:58;77153.22;;;-147.06;87.40
54453;BME280;40363;52.270;10.546;2022-10-04T04:58:27;77159.41;;;-147.06;87.58
54453;BME280;40363;52.270;10.546;2022-10-04T05:00:59;77151.19;;;-147.06;87.57
54453;BME280;40363;52.270;10.546;2022-10-04T05:03:28;77157.34;;;-147.06;87.87
54453;BME280;40363;52.270;10.546;2022-10-04T05:05:55;77147.06;;;-147.06;88.07
54453;BME280;40363;52.270;10.546;2022-10-04T05:08:26;77138.84;;;-147.06;87.82
54453;BME280;40363;52.270;10.546;2022-10-04T05:11:01;77138.84;;;-147.06;87.71
54453;BME280;40363;52.270;10.546;2022-10-04T05:13:34;77128.56;;;-147.06;87.78
54453;BME280;40363;52.270;10.546;2022-10-04T05:16:05;77118.28;;;-147.06;87.47
54453;BME280;40363;52.270;10.546;2022-10-04T05:18:38;77114.19;;;-147.06;86.04
54453;BME280;40363;52.270;10.546;2022-10-04T05:21:07;77099.78;;;-147.06;85.46
54453;BME280;40363;52.270;10.546;2022-10-04T05:23:37;77095.69;;;-147.06;84.97
54453;BME280;40363;52.270;10.546;2022-10-04T05:26:09;77091.56;;;-147.06;84.67
54453;BME280;40363;52.270;10.546;2022-10-04T05:28:37;77081.28;;;-147.06;84.28
54453;BME280;40363;52.270;10.546;2022-10-04T05:31:27;77081.28;;;-147.06;84.01
54453;BME280;40363;52.270;10.546;2022-10-04T05:33:58;77077.19;;;-147.06;83.71
54453;BME280;40363;52.270;10.546;2022-10-04T05:36:38;77083.34;;;-147.06;83.33
54453;BME280;40363;52.270;10.546;2022-10-04T05:39:13;77081.28;;;-147.06;83.13
54453;BME280;40363;52.270;10.546;2022-10-04T05:41:47;77091.56;;;-147.06;82.93
54453;BME280;40363;52.270;10.546;2022-10-04T05:44:22;77093.63;;;-147.06;83.20
54453;BME280;40363;52.270;10.546;2022-10-04T05:46:50;77099.78;;;-147.06;83.11
54453;BME280;40363;52.270;10.546;2022-10-04T05:49:20;77095.69;;;-147.06;83.09
54453;BME280;40363;52.270;10.546;2022-10-04T05:51:49;77087.44;;;-147.06;83.08
54453;BME280;40363;52.270;10.546;2022-10-04T05:54:21;77089.50;;;-147.06;83.00
54453;BME280;40363;52.270;10.546;2022-10-04T06:00:04;77087.44;;;-147.06;83.13
54453;BME280;40363;52.270;10.546;2022-10-04T06:03:01;77085.41;;;-147.06;83.06
54453;BME280;40363;52.270;10.546;2022-10-04T06:05:42;77077.19;;;-147.06;83.00
54453;BME280;40363;52.270;10.546;2022-10-04T06:08:18;77068.94;;;-147.06;82.92
54453;BME280;40363;52.270;10.546;2022-10-04T06:11:04;77064.84;;;-147.06;82.97
54453;BME280;40363;52.270;10.546;2022-10-04T06:13:52;77052.50;;;-147.06;82.87
54453;BME280;40363;52.270;10.546;2022-10-04T06:16:29;77040.16;;;-147.06;82.52
54453;BME280;40363;52.270;10.546;2022-10-04T06:19:29;77044.28;;;-147.06;82.28
54453;BME280;40363;52.270;10.546;2022-10-04T06:22:14;77034.00;;;-147.06;82.06
54453;BME280;40363;52.270;10.546;2022-10-04T06:24:45;77031.94;;;-147.06;81.63
54453;BME280;40363;52.270;10.546;2022-10-04T06:27:18;77036.06;;;-147.06;81.68
54453;BME280;40363;52.270;10.546;2022-10-04T06:29:50;77042.22;;;-147.06;81.50
54453;BME280;40363;52.270;10.546;2022-10-04T06:32:38;77040.16;;;-147.06;81.47
54453;BME280;40363;52.270;10.546;2022-10-04T06:35:29;77038.13;;;-147.06;81.55
54453;BME280;40363;52.270;10.546;2022-10-04T06:38:24;77038.13;;;-147.06;81.22
54453;BME280;40363;52.270;10.546;2022-10-04T06:41:21;77025.78;;;-147.06;80.80
54453;BME280;40363;52.270;10.546;2022-10-04T06:44:05;77023.72;;;-147.06;80.84
54453;BME280;40363;52.270;10.546;2022-10-04T06:46:39;77023.72;;;-147.06;80.57
54453;BME280;40363;52.270;10.546;2022-10-04T06:49:29;77021.66;;;-147.06;80.23
54453;BME280;40363;52.270;10.546;2022-10-04T06:55:06;76994.94;;;-147.06;79.52
54453;BME280;40363;52.270;10.546;2022-10-04T06:57:48;76986.72;;;-147.06;79.06
54453;BME280;40363;52.270;10.546;2022-10-04T07:00:25;76982.63;;;-147.06;78.64
54453;BME280;40363;52.270;10.546;2022-10-04T07:02:57;76980.56;;;-147.06;78.46
54453;BME280;40363;52.270;10.546;2022-10-04T07:05:38;76962.06;;;-147.06;77.72
54453;BME280;40363;52.270;10.546;2022-10-04T07:08:12;76964.13;;;-147.06;77.92
54453;BME280;40363;52.270;10.546;2022-10-04T07:10:58;76962.06;;;-147.06;77.82
54453;BME280;40363;52.270;10.546;2022-10-04T07:13:38;76949.72;;;-147.06;77.83
54453;BME280;40363;52.270;10.546;2022-10-04T07:16:16;76941.50;;;-147.06;77.19
54453;BME280;40363;52.270;10.546;2022-10-04T07:18:56;76937.38;;;-147.06;77.31
54453;BME280;40363;52.270;10.546;2022-10-04T07:21:32;76920.94;;;-147.06;76.67
54453;BME280;40363;52.270;10.546;2022-10-04T07:24:00;76912.72;;;-147.06;76.15
54453;BME280;40363;52.270;10.546;2022-10-04T07:26:40;76896.28;;;-147.06;75.87
54453;BME280;40363;52.270;10.546;2022-10-04T07:29:14;76894.22;;;-147.06;75.75
54453;BME280;40363;52.270;10.546;2022-10-04T07:31:52;76888.06;;;-147.06;75.14
54453;BME280;40363;52.270;10.546;2022-10-04T07:34:28;76877.78;;;-147.06;75.12
54453;BME280;40363;52.270;10.546;2022-10-04T07:36:59;76867.50;;;-147.06;74.87
54453;BME280;40363;52.270;10.546;2022-10-04T07:39:30;76861.34;;;-147.06;74.09
54453;BME280;40363;52.270;10.546;2022-10-04T07:42:12;76865.44;;;-147.06;74.06
54453;BME280;40363;52.270;10.546;2022-10-04T07:44:45;76842.84;;;-147.06;73.88
54453;BME280;40363;52.270;10.546;2022-10-04T07:47:18;76793.50;;;-147.06;72.44
54453;BME280;40363;52.270;10.546;2022-10-04T07:49:45;76670.16;;;-147.06;68.96
54453;BME280;40363;52.270;10.546;2022-10-04T07:52:23;76559.19;;;-147.06;65.57
54453;BME280;40363;52.270;10.546;2022-10-04T07:54:59;76505.75;;;-147.06;63.04
54453;BME280;40363;52.270;10.546;2022-10-04T07:57:38;76431.75;;;-147.06;61.29
54453;BME280;40363;52.270;10.546;2022-10-04T08:00:11;76335.13;;;-147.06;58.45
54453;BME280;40363;52.270;10.546;2022-10-04T08:02:57;76287.88;;;-147.06;57.31
54453;BME280;40363;52.270;10.546;2022-10-04T08:05:34;76220.03;;;-147.06;55.16
54453;BME280;40363;52.270;10.546;2022-10-04T08:08:21;76201.56;;;-147.06;54.23
54453;BME280;40363;52.270;10.546;2022-10-04T08:10:58;76154.28;;;-147.06;53.22
54453;BME280;40363;52.270;10.546;2022-10-04T08:13:38;76127.56;;;-147.06;52.39
54453;BME280;40363;52.270;10.546;2022-10-04T08:16:16;76115.22;;;-147.06;51.66
54453;BME280;40363;52.270;10.546;2022-10-04T08:18:58;76094.69;;;-147.06;51.04
54453;BME280;40363;52.270;10.546;2022-10-04T08:21:33;76135.78;;;-147.06;51.65
54453;BME280;40363;52.270;10.546;2022-10-04T08:24:13;76271.44;;;-147.06;53.89
54453;BME280;40363;52.270;10.546;2022-10-04T08:26:53;76234.44;;;-147.06;53.66
54453;BME280;40363;52.270;10.546;2022-10-04T08:29:36;76115.22;;;-147.06;51.46
54453;BME280;40363;52.270;10.546;2022-10-04T08:32:16;76234.44;;;-147.06;53.31
54453;BME280;40363;52.270;10.546;2022-10-04T08:35:07;76164.56;;;-147.06;52.46
54453;BME280;40363;52.270;10.546;2022-10-04T08:37:48;76096.72;;;-147.06;50.95
54453;BME280;40363;52.270;10.546;2022-10-04T08:40:48;76250.88;;;-147.06;53.36
54453;BME280;40363;52.270;10.546;2022-10-04T08:43:40;76316.66;;;-147.06;55.00
54453;BME280;40363;52.270;10.546;2022-10-04T08:46:32;76275.53;;;-147.06;54.46
54453;BME280;40363;52.270;10.546;2022-10-04T08:49:24;76337.19;;;-147.06;55.97
54453;BME280;40363;52.270;10.546;2022-10-04T08:55:35;76402.97;;;-147.06;57.97
54453;BME280;40363;52.270;10.546;2022-10-04T08:58:29;76370.09;;;-147.06;57.73
54453;BME280;40363;52.270;10.546;2022-10-04T09:01:22;76363.91;;;-147.06;56.89
54453;BME280;40363;52.270;10.546;2022-10-04T09:06:57;76363.91;;;-147.06;57.98
54453;BME280;40363;52.270;10.546;2022-10-04T09:09:52;76388.59;;;-147.06;58.64
54453;BME280;40363;52.270;10.546;2022-10-04T09:12:55;76291.97;;;-147.06;55.46
54453;BME280;40363;52.270;10.546;2022-10-04T09:15:38;76252.94;;;-147.06;54.57
54453;BME280;40363;52.270;10.546;2022-10-04T09:18:21;76176.88;;;-147.06;52.97
54453;BME280;40363;52.270;10.546;2022-10-04T09:20:56;76111.13;;;-147.06;52.02
54453;BME280;40363;52.270;10.546;2022-10-04T09:26:38;76059.75;;;-147.06;50.94
54453;BME280;40363;52.270;10.546;2022-10-04T09:29:18;76076.19;;;-147.06;50.87
54453;BME280;40363;52.270;10.546;2022-10-04T09:38:03;76154.28;;;-147.06;52.82
54453;BME280;40363;52.270;10.546;2022-10-04T09:40:56;76121.41;;;-147.06;51.87
54453;BME280;40363;52.270;10.546;2022-10-04T09:44:00;76107.00;;;-147.06;51.44
54453;BME280;40363;52.270;10.546;2022-10-04T09:46:49;76135.78;;;-147.06;51.80
54453;BME280;40363;52.270;10.546;2022-10-04T09:49:36;76139.91;;;-147.06;51.89
54453;BME280;40363;52.270;10.546;2022-10-04T09:52:22;76156.34;;;-147.06;52.28
54453;BME280;40363;52.270;10.546;2022-10-04T09:55:08;76152.22;;;-147.06;52.29
54453;BME280;40363;52.270;10.546;2022-10-04T09:57:46;76115.22;;;-147.06;51.40
54453;BME280;40363;52.270;10.546;2022-10-04T10:00:19;76072.06;;;-147.06;50.88
54453;BME280;40363;52.270;10.546;2022-10-04T10:06:33;76057.69;;;-147.06;49.24
54453;BME280;40363;52.270;10.546;2022-10-04T10:09:16;76020.69;;;-147.06;48.00
54453;BME280;40363;52.270;10.546;2022-10-04T10:11:52;76008.38;;;-147.06;48.05
54453;BME280;40363;52.270;10.546;2022-10-04T10:14:58;76094.69;;;-147.06;49.03
54453;BME280;40363;52.270;10.546;2022-10-04T10:17:33;76016.59;;;-147.06;48.47
54453;BME280;40363;52.270;10.546;2022-10-04T10:20:38;75963.16;;;-147.06;47.52
54453;BME280;40363;52.270;10.546;2022-10-04T10:23:33;75963.16;;;-147.06;47.69
54453;BME280;40363;52.270;10.546;2022-10-04T10:32:13;75963.16;;;-147.06;47.13
54453;BME280;40363;52.270;10.546;2022-10-04T10:35:13;75950.81;;;-147.06;46.89
54453;BME280;40363;52.270;10.546;2022-10-04T10:37:57;76045.34;;;-147.06;48.32
54453;BME280;40363;52.270;10.546;2022-10-04T10:40:37;75979.59;;;-147.06;47.50
54453;BME280;40363;52.270;10.546;2022-10-04T10:43:30;75942.59;;;-147.06;46.55
54453;BME280;40363;52.270;10.546;2022-10-04T10:46:16;75917.94;;;-147.06;46.00
54453;BME280;40363;52.270;10.546;2022-10-04T10:49:07;75911.78;;;-147.06;45.67
54453;BME280;40363;52.270;10.546;2022-10-04T10:52:03;75880.94;;;-147.06;46.12
54453;BME280;40363;52.270;10.546;2022-10-04T10:54:57;75954.94;;;-147.06;46.66
54453;BME280;40363;52.270;10.546;2022-10-04T10:57:51;76051.53;;;-147.06;48.46
54453;BME280;40363;52.270;10.546;2022-10-04T11:00:39;76078.25;;;-147.06;48.99
54453;BME280;40363;52.270;10.546;2022-10-04T11:03:28;76115.22;;;-147.06;50.23
54453;BME280;40363;52.270;10.546;2022-10-04T11:06:10;76154.28;;;-147.06;50.31
54453;BME280;40363;52.270;10.546;2022-10-04T11:09:18;76164.56;;;-147.06;50.82
54453;BME280;40363;52.270;10.546;2022-10-04T11:12:11;76191.28;;;-147.06;51.68
54453;BME280;40363;52.270;10.546;2022-10-04T11:18:22;76218.00;;;-147.06;50.61
54453;BME280;40363;52.270;10.546;2022-10-04T11:24:27;76207.72;;;-147.06;51.73
54453;BME280;40363;52.270;10.546;2022-10-04T11:27:19;76189.22;;;-147.06;51.74
54453;BME280;40363;52.270;10.546;2022-10-04T11:30:15;76226.22;;;-147.06;51.35
54453;BME280;40363;52.270;10.546;2022-10-04T11:36:19;76234.44;;;-147.06;50.69
54453;BME280;40363;52.270;10.546;2022-10-04T11:39:22;76228.28;;;-147.06;49.84
54453;BME280;40363;52.270;10.546;2022-10-04T11:42:00;76213.88;;;-147.06;49.60
54453;BME280;40363;52.270;10.546;2022-10-04T11:47:39;76238.53;;;-147.06;49.03
54453;BME280;40363;52.270;10.546;2022-10-04T11:50:21;76234.44;;;-147.06;49.43
54453;BME280;40363;52.270;10.546;2022-10-04T11:56:08;76215.94;;;-147.06;49.71
54453;BME280;40363;52.270;10.546;2022-10-04T11:58:48;76232.38;;;-147.06;49.62
54453;BME280;40363;52.270;10.546;2022-10-04T12:04:28;76234.44;;;-147.06;49.37
54453;BME280;40363;52.270;10.546;2022-10-04T12:07:21;76238.53;;;-147.06;50.31
54453;BME280;40363;52.270;10.546;2022-10-04T12:10:03;76238.53;;;-147.06;50.71
54453;BME280;40363;52.270;10.546;2022-10-04T12:15:39;76218.00;;;-147.06;50.63
54453;BME280;40363;52.270;10.546;2022-10-04T12:18:50;76201.56;;;-147.06;50.82
54453;BME280;40363;52.270;10.546;2022-10-04T12:21:35;76201.56;;;-147.06;51.19
54453;BME280;40363;52.270;10.546;2022-10-04T12:24:40;76197.44;;;-147.06;50.78
54453;BME280;40363;52.270;10.546;2022-10-04T12:27:27;76197.44;;;-147.06;50.42
54453;BME280;40363;52.270;10.546;2022-10-04T12:33:05;76191.28;;;-147.06;49.84
54453;BME280;40363;52.270;10.546;2022-10-04T12:35:53;76187.16;;;-147.06;49.65
54453;BME280;40363;52.270;10.546;2022-10-04T12:38:41;76189.22;;;-147.06;49.82
54453;BME280;40363;52.270;10.546;2022-10-04T12:41:27;76189.22;;;-147.06;49.59
54453;BME280;40363;52.270;10.546;2022-10-04T12:44:05;76178.94;;;-147.06;49.50
54453;BME280;40363;52.270;10.546;2022-10-04T12:46:45;76168.66;;;-147.06;49.24
54453;BME280;40363;52.270;10.546;2022-10-04T12:49:27;76176.88;;;-147.06;48.96
54453;BME280;40363;52.270;10.546;2022-10-04T12:52:04;76170.72;;;-147.06;49.13
54453;BME280;40363;52.270;10.546;2022-10-04T12:54:38;76168.66;;;-147.06;49.27
54453;BME280;40363;52.270;10.546;2022-10-04T12:57:18;76162.50;;;-147.06;49.52
54453;BME280;40363;52.270;10.546;2022-10-04T13:00:02;76150.16;;;-147.06;49.37
54453;BME280;40363;52.270;10.546;2022-10-04T13:02:43;76131.69;;;-147.06;49.22
54453;BME280;40363;52.270;10.546;2022-10-04T13:05:17;76139.91;;;-147.06;49.13
54453;BME280;40363;52.270;10.546;2022-10-04T13:08:00;76156.34;;;-147.06;49.45
54453;BME280;40363;52.270;10.546;2022-10-04T13:10:40;76137.84;;;-147.06;49.18
54453;BME280;40363;52.270;10.546;2022-10-04T13:13:34;76156.34;;;-147.06;49.13
54453;BME280;40363;52.270;10.546;2022-10-04T13:16:11;76148.13;;;-147.06;49.96
54453;BME280;40363;52.270;10.546;2022-10-04T13:18:53;76129.63;;;-147.06;49.45
54453;BME280;40363;52.270;10.546;2022-10-04T13:21:46;76127.56;;;-147.06;49.57
54453;BME280;40363;52.270;10.546;2022-10-04T13:24:23;76115.22;;;-147.06;49.18
54453;BME280;40363;52.270;10.546;2022-10-04T13:26:56;76123.44;;;-147.06;49.40
54453;BME280;40363;52.270;10.546;2022-10-04T13:29:27;76119.34;;;-147.06;49.21
54453;BME280;40363;52.270;10.546;2022-10-04T13:32:01;76115.22;;;-147.06;48.73
54453;BME280;40363;52.270;10.546;2022-10-04T13:34:36;76123.44;;;-147.06;48.61
54453;BME280;40363;52.270;10.546;2022-10-04T13:37:20;76131.69;;;-147.06;49.24
54453;BME280;40363;52.270;10.546;2022-10-04T13:43:09;76104.97;;;-147.06;49.43
54453;BME280;40363;52.270;10.546;2022-10-04T13:45:46;76098.78;;;-147.06;49.00
54453;BME280;40363;52.270;10.546;2022-10-04T13:48:29;76104.97;;;-147.06;49.58
54453;BME280;40363;52.270;10.546;2022-10-04T13:51:17;76100.84;;;-147.06;49.37
54453;BME280;40363;52.270;10.546;2022-10-04T13:53:57;76102.91;;;-147.06;49.61
54453;BME280;40363;52.270;10.546;2022-10-04T13:57:10;76098.78;;;-147.06;49.50
54453;BME280;40363;52.270;10.546;2022-10-04T13:59:44;76092.63;;;-147.06;49.75
54453;BME280;40363;52.270;10.546;2022-10-04T14:05:43;76076.19;;;-147.06;49.05
54453;BME280;40363;52.270;10.546;2022-10-04T14:08:38;76078.25;;;-147.06;49.21
54453;BME280;40363;52.270;10.546;2022-10-04T14:11:35;76076.19;;;-147.06;49.01
54453;BME280;40363;52.270;10.546;2022-10-04T14:14:21;76076.19;;;-147.06;48.89
54453;BME280;40363;52.270;10.546;2022-10-04T14:20:22;76057.69;;;-147.06;48.99
54453;BME280;40363;52.270;10.546;2022-10-04T14:23:38;76061.78;;;-147.06;48.70
54453;BME280;40363;52.270;10.546;2022-10-04T14:26:44;76053.56;;;-147.06;49.18
54453;BME280;40363;52.270;10.546;2022-10-04T14:29:31;76057.69;;;-147.06;48.99
54453;BME280;40363;52.270;10.546;2022-10-04T14:32:24;76082.34;;;-147.06;49.53
54453;BME280;40363;52.270;10.546;2022-10-04T14:35:00;76055.63;;;-147.06;49.24
54453;BME280;40363;52.270;10.546;2022-10-04T14:38:00;76061.78;;;-147.06;49.38
54453;BME280;40363;52.270;10.546;2022-10-04T14:40:44;76053.56;;;-147.06;48.58